Ro Fjord — LFEI — position and weather

sailwx.info

Track history (hours):
 
Tides and Currents Weather Stations Pressure Air Temp Water Temp Dewpoint Dewpoint Depression Visibility Wind Speed Wind Dir Waves Ship Positions

Ro Fjord

Last reported at 2014-Dec-05 07:25 UTC. Time now 2014-Dec-20 07:17 UTC.
Position N 62°37' E 006°18'.
Warning: this ship's position is 14 days out of date.

Length 72 m; draft 6.4 m.

Type: Cargo ship. MMSI: 257430000.

Date/timePositionNaut miles runAvg speedWind from/ knotsBaromVisibWave heightAir tempDewpointWater temp
2014-Dec-05 07:25N 62°37' E 006°18'3 3.9
2014-Dec-05 06:34N 62°40' E 006°22'0 0.0
2014-Dec-05 05:34N 62°40' E 006°22'7 7.5
2014-Dec-05 04:33N 62°34' E 006°13'1110.7
2014-Dec-05 03:33N 62°26' E 005°56'1010.2
2014-Dec-05 02:34N 62°19' E 005°41'1 0.6
2014-Dec-05 01:34N 62°19' E 005°39'0 0.2
2014-Dec-05 00:34N 62°19' E 005°40'9 9.0
2014-Dec-04 23:33N 62°17' E 005°21'10 9.7
2014-Dec-04 22:34N 62°11' E 005°04'12 9.4
2014-Dec-04 21:19N 61°60' E 005°10'7 9.0
2014-Dec-04 20:33N 61°53' E 005°10'6 5.9
2014-Dec-04 19:34N 61°47' E 005°06'9 9.0
2014-Dec-04 18:33N 61°39' E 004°59'9 9.3
2014-Dec-04 17:34N 61°30' E 004°59'10 9.9
2014-Dec-04 16:33N 61°21' E 004°49'1010.5
2014-Dec-04 15:33N 61°12' E 005°00'1010.2
2014-Dec-04 14:33N 61°05' E 005°16'9 8.5
2014-Dec-04 13:31N 61°04' E 005°34'0 0.0
2014-Dec-04 12:33N 61°04' E 005°34'0 0.0
2014-Dec-04 11:33N 61°04' E 005°34'12 5.8
2014-Dec-04 09:33N 61°07' E 005°11'1010.1
2014-Dec-04 08:33N 61°14' E 004°56'10 8.0
2014-Dec-04 07:17N 61°24' E 004°59'710.2
2014-Dec-04 06:33N 61°32' E 004°60'10 9.7
2014-Dec-04 05:33N 61°41' E 004°58'10 9.9
2014-Dec-04 04:34N 61°49' E 005°10'6 6.4
2014-Dec-04 03:33N 61°55' E 005°07'12 9.8
2014-Dec-04 02:21N 62°07' E 005°05'6 7.8
2014-Dec-04 01:33N 62°13' E 005°08'8 8.2
2014-Dec-04 00:34N 62°11' E 005°25'9 9.0
2014-Dec-03 23:33N 62°18' E 005°37'2 1.5
2014-Dec-03 22:33N 62°19' E 005°39'2 1.9
2014-Dec-03 21:33N 62°19' E 005°43'8 8.5
2014-Dec-03 20:34N 62°26' E 005°55'9 8.9
2014-Dec-03 19:34N 62°31' E 006°11'8 8.4
2014-Dec-03 18:34N 62°38' E 006°21'2 2.3
2014-Dec-03 17:34N 62°40' E 006°22'0 0.0
2014-Dec-03 16:33N 62°40' E 006°22'7 7.0
2014-Dec-03 15:34N 62°34' E 006°13'1110.7
2014-Dec-03 14:33N 62°26' E 005°57'  
Track history (hours):
 
Tides and Currents Weather Stations Pressure Air Temp Water Temp Dewpoint Dewpoint Depression Visibility Wind Speed Wind Dir Waves Ship Positions

Ro Fjord

Last reported at 2014-Dec-05 07:25 UTC. Time now 2014-Dec-20 07:17 UTC.
Position N 62°37' E 006°18'.
Warning: this ship's position is 14 days out of date.

Length 72 m; draft 6.4 m.

Type: Cargo ship. MMSI: 257430000.

Date/timePositionNaut miles runAvg speedWind from/ knotsBaromVisibWave heightAir tempDewpointWater temp
2014-Dec-05 07:25N 62°37' E 006°18'3 3.9
2014-Dec-05 06:34N 62°40' E 006°22'0 0.0
2014-Dec-05 05:34N 62°40' E 006°22'7 7.5
2014-Dec-05 04:33N 62°34' E 006°13'1110.7
2014-Dec-05 03:33N 62°26' E 005°56'1010.2
2014-Dec-05 02:34N 62°19' E 005°41'1 0.6
2014-Dec-05 01:34N 62°19' E 005°39'0 0.2
2014-Dec-05 00:34N 62°19' E 005°40'9 9.0
2014-Dec-04 23:33N 62°17' E 005°21'10 9.7
2014-Dec-04 22:34N 62°11' E 005°04'12 9.4
2014-Dec-04 21:19N 61°60' E 005°10'7 9.0
2014-Dec-04 20:33N 61°53' E 005°10'6 5.9
2014-Dec-04 19:34N 61°47' E 005°06'9 9.0
2014-Dec-04 18:33N 61°39' E 004°59'9 9.3
2014-Dec-04 17:34N 61°30' E 004°59'10 9.9
2014-Dec-04 16:33N 61°21' E 004°49'1010.5
2014-Dec-04 15:33N 61°12' E 005°00'1010.2
2014-Dec-04 14:33N 61°05' E 005°16'9 8.5
2014-Dec-04 13:31N 61°04' E 005°34'0 0.0
2014-Dec-04 12:33N 61°04' E 005°34'0 0.0
2014-Dec-04 11:33N 61°04' E 005°34'12 5.8
2014-Dec-04 09:33N 61°07' E 005°11'1010.1
2014-Dec-04 08:33N 61°14' E 004°56'10 8.0
2014-Dec-04 07:17N 61°24' E 004°59'710.2
2014-Dec-04 06:33N 61°32' E 004°60'10 9.7
2014-Dec-04 05:33N 61°41' E 004°58'10 9.9
2014-Dec-04 04:34N 61°49' E 005°10'6 6.4
2014-Dec-04 03:33N 61°55' E 005°07'12 9.8
2014-Dec-04 02:21N 62°07' E 005°05'6 7.8
2014-Dec-04 01:33N 62°13' E 005°08'8 8.2
2014-Dec-04 00:34N 62°11' E 005°25'9 9.0
2014-Dec-03 23:33N 62°18' E 005°37'2 1.5
2014-Dec-03 22:33N 62°19' E 005°39'2 1.9
2014-Dec-03 21:33N 62°19' E 005°43'8 8.5
2014-Dec-03 20:34N 62°26' E 005°55'9 8.9
2014-Dec-03 19:34N 62°31' E 006°11'8 8.4
2014-Dec-03 18:34N 62°38' E 006°21'2 2.3
2014-Dec-03 17:34N 62°40' E 006°22'0 0.0
2014-Dec-03 16:33N 62°40' E 006°22'7 7.0
2014-Dec-03 15:34N 62°34' E 006°13'1110.7
2014-Dec-03 14:33N 62°26' E 005°57'  

Dump ship's entire track history